sensor_id;sensor_type;location;lat;lon;timestamp;pressure;altitude;pressure_sealevel;temperature;humidity
30618;BME280;17384;51.214;9.202;2023-01-30T00:00:56;98897.78;;;-1.79;82.43
30618;BME280;17384;51.214;9.202;2023-01-30T00:03:23;98887.84;;;-1.77;82.41
30618;BME280;17384;51.214;9.202;2023-01-30T00:05:49;98863.91;;;-1.77;82.74
30618;BME280;17384;51.214;9.202;2023-01-30T00:08:15;98843.72;;;-1.89;83.28
30618;BME280;17384;51.214;9.202;2023-01-30T00:10:40;98851.91;;;-1.71;83.12
30618;BME280;17384;51.214;9.202;2023-01-30T00:13:06;98835.34;;;-1.84;83.63
30618;BME280;17384;51.214;9.202;2023-01-30T00:15:31;98832.38;;;-1.91;83.80
30618;BME280;17384;51.214;9.202;2023-01-30T00:17:57;98835.03;;;-1.91;84.19
30618;BME280;17384;51.214;9.202;2023-01-30T00:20:22;98822.19;;;-1.86;83.98
30618;BME280;17384;51.214;9.202;2023-01-30T00:22:48;98824.72;;;-1.75;84.14
30618;BME280;17384;51.214;9.202;2023-01-30T00:25:13;98843.56;;;-1.87;84.45
30618;BME280;17384;51.214;9.202;2023-01-30T00:27:39;98893.44;;;-1.80;84.51
30618;BME280;17384;51.214;9.202;2023-01-30T00:30:05;98886.16;;;-1.78;84.80
30618;BME280;17384;51.214;9.202;2023-01-30T00:32:31;98847.41;;;-1.61;84.19
30618;BME280;17384;51.214;9.202;2023-01-30T00:34:57;98856.81;;;-1.47;83.33
30618;BME280;17384;51.214;9.202;2023-01-30T00:37:22;98847.44;;;-1.51;83.11
30618;BME280;17384;51.214;9.202;2023-01-30T00:39:48;98822.22;;;-1.57;83.25
30618;BME280;17384;51.214;9.202;2023-01-30T00:42:13;98846.03;;;-1.65;83.66
30618;BME280;17384;51.214;9.202;2023-01-30T00:44:57;98832.72;;;-1.55;83.60
30618;BME280;17384;51.214;9.202;2023-01-30T00:47:42;98810.03;;;-1.59;83.46
30618;BME280;17384;51.214;9.202;2023-01-30T00:50:08;98810.03;;;-1.59;83.37
30618;BME280;17384;51.214;9.202;2023-01-30T00:52:33;98820.13;;;-1.53;82.76
30618;BME280;17384;51.214;9.202;2023-01-30T00:54:59;98802.06;;;-1.59;83.32
30618;BME280;17384;51.214;9.202;2023-01-30T00:57:24;98815.50;;;-1.61;83.11
30618;BME280;17384;51.214;9.202;2023-01-30T00:59:49;98805.31;;;-1.65;83.16
30618;BME280;17384;51.214;9.202;2023-01-30T01:02:15;98815.50;;;-1.51;82.85
30618;BME280;17384;51.214;9.202;2023-01-30T01:04:40;98821.09;;;-1.54;82.89
30618;BME280;17384;51.214;9.202;2023-01-30T01:07:09;98824.03;;;-1.57;83.24
30618;BME280;17384;51.214;9.202;2023-01-30T01:09:35;98825.03;;;-1.58;83.13
30618;BME280;17384;51.214;9.202;2023-01-30T01:12:01;98805.84;;;-1.52;83.05
30618;BME280;17384;51.214;9.202;2023-01-30T01:14:27;98798.41;;;-1.58;83.47
30618;BME280;17384;51.214;9.202;2023-01-30T01:16:52;98796.59;;;-1.58;83.50
30618;BME280;17384;51.214;9.202;2023-01-30T01:19:17;98782.47;;;-1.58;84.01
30618;BME280;17384;51.214;9.202;2023-01-30T01:21:43;98769.56;;;-1.63;84.20
30618;BME280;17384;51.214;9.202;2023-01-30T01:24:11;98760.22;;;-1.67;84.52
30618;BME280;17384;51.214;9.202;2023-01-30T01:26:36;98769.16;;;-1.58;84.50
30618;BME280;17384;51.214;9.202;2023-01-30T01:29:02;98768.34;;;-1.40;84.35
30618;BME280;17384;51.214;9.202;2023-01-30T01:31:27;98759.25;;;-1.37;84.55
30618;BME280;17384;51.214;9.202;2023-01-30T01:33:53;98762.66;;;-1.08;84.47
30618;BME280;17384;51.214;9.202;2023-01-30T01:36:18;98724.00;;;-1.02;84.42
30618;BME280;17384;51.214;9.202;2023-01-30T01:38:44;98728.47;;;-0.93;84.27
30618;BME280;17384;51.214;9.202;2023-01-30T01:41:11;98748.09;;;-1.04;84.56
30618;BME280;17384;51.214;9.202;2023-01-30T01:49:32;98753.41;;;-1.04;84.79
30618;BME280;17384;51.214;9.202;2023-01-30T01:52:02;98739.25;;;-0.85;84.20
30618;BME280;17384;51.214;9.202;2023-01-30T01:54:47;98722.41;;;-0.85;84.33
30618;BME280;17384;51.214;9.202;2023-01-30T01:57:18;98723.41;;;-0.86;84.22
30618;BME280;17384;51.214;9.202;2023-01-30T02:00:02;98729.81;;;-0.79;84.24
30618;BME280;17384;51.214;9.202;2023-01-30T02:02:30;98713.97;;;-0.81;83.98
30618;BME280;17384;51.214;9.202;2023-01-30T02:04:57;98726.28;;;-0.70;83.79
30618;BME280;17384;51.214;9.202;2023-01-30T02:07:51;98693.66;;;-0.82;83.70
30618;BME280;17384;51.214;9.202;2023-01-30T02:10:21;98677.34;;;-0.69;84.05
30618;BME280;17384;51.214;9.202;2023-01-30T02:12:49;98675.56;;;-0.78;84.12
30618;BME280;17384;51.214;9.202;2023-01-30T02:15:16;98673.00;;;-0.70;83.99
30618;BME280;17384;51.214;9.202;2023-01-30T02:17:43;98662.91;;;-0.66;84.04
30618;BME280;17384;51.214;9.202;2023-01-30T02:29:17;98649.53;;;-0.57;84.80
30618;BME280;17384;51.214;9.202;2023-01-30T02:32:06;98633.22;;;-0.54;85.35
30618;BME280;17384;51.214;9.202;2023-01-30T02:43:00;98618.41;;;-0.21;86.94
30618;BME280;17384;51.214;9.202;2023-01-30T02:45:39;98618.19;;;-0.10;87.18
30618;BME280;17384;51.214;9.202;2023-01-30T02:48:12;98584.59;;;-0.03;87.10
30618;BME280;17384;51.214;9.202;2023-01-30T02:50:45;98598.44;;;0.01;87.00
30618;BME280;17384;51.214;9.202;2023-01-30T02:53:12;98567.13;;;0.03;87.40
30618;BME280;17384;51.214;9.202;2023-01-30T02:55:40;98568.97;;;0.03;87.56
30618;BME280;17384;51.214;9.202;2023-01-30T02:58:06;98579.63;;;0.03;88.04
30618;BME280;17384;51.214;9.202;2023-01-30T03:09:19;98562.78;;;0.02;88.25
30618;BME280;17384;51.214;9.202;2023-01-30T03:12:00;98552.91;;;-0.06;88.09
30618;BME280;17384;51.214;9.202;2023-01-30T03:14:34;98571.56;;;-0.06;88.23
30618;BME280;17384;51.214;9.202;2023-01-30T03:17:03;98547.50;;;-0.14;87.93
30618;BME280;17384;51.214;9.202;2023-01-30T03:19:30;98582.63;;;-0.18;88.03
30618;BME280;17384;51.214;9.202;2023-01-30T03:21:56;98583.47;;;-0.18;88.12
30618;BME280;17384;51.214;9.202;2023-01-30T03:24:21;98570.59;;;-0.22;87.91
30618;BME280;17384;51.214;9.202;2023-01-30T03:26:53;98566.25;;;-0.23;87.81
30618;BME280;17384;51.214;9.202;2023-01-30T03:29:21;98520.41;;;-0.27;88.01
30618;BME280;17384;51.214;9.202;2023-01-30T03:31:47;98525.72;;;-0.27;87.98
30618;BME280;17384;51.214;9.202;2023-01-30T03:34:12;98510.56;;;-0.26;87.79
30618;BME280;17384;51.214;9.202;2023-01-30T03:36:38;98518.25;;;-0.23;87.68
30618;BME280;17384;51.214;9.202;2023-01-30T03:39:03;98533.81;;;-0.19;87.64
30618;BME280;17384;51.214;9.202;2023-01-30T03:41:29;98526.50;;;-0.17;87.50
30618;BME280;17384;51.214;9.202;2023-01-30T03:43:54;98530.06;;;-0.08;87.44
30618;BME280;17384;51.214;9.202;2023-01-30T03:46:20;98520.47;;;-0.01;87.20
30618;BME280;17384;51.214;9.202;2023-01-30T03:48:45;98518.97;;;0.05;86.86
30618;BME280;17384;51.214;9.202;2023-01-30T03:51:11;98519.03;;;0.13;86.69
30618;BME280;17384;51.214;9.202;2023-01-30T03:53:36;98527.25;;;0.19;86.53
30618;BME280;17384;51.214;9.202;2023-01-30T03:56:02;98534.78;;;0.24;86.16
30618;BME280;17384;51.214;9.202;2023-01-30T03:58:27;98523.69;;;0.37;85.86
30618;BME280;17384;51.214;9.202;2023-01-30T04:00:55;98517.56;;;0.44;85.65
30618;BME280;17384;51.214;9.202;2023-01-30T04:03:22;98518.78;;;0.50;85.22
30618;BME280;17384;51.214;9.202;2023-01-30T04:05:48;98516.44;;;0.55;85.20
30618;BME280;17384;51.214;9.202;2023-01-30T04:08:13;98529.47;;;0.58;85.28
30618;BME280;17384;51.214;9.202;2023-01-30T04:10:39;98538.50;;;0.65;85.15
30618;BME280;17384;51.214;9.202;2023-01-30T04:13:04;98510.03;;;0.74;85.07
30618;BME280;17384;51.214;9.202;2023-01-30T04:15:30;98485.00;;;0.75;84.94
30618;BME280;17384;51.214;9.202;2023-01-30T04:17:56;98483.69;;;0.79;85.01
30618;BME280;17384;51.214;9.202;2023-01-30T04:20:21;98482.19;;;0.84;84.91
30618;BME280;17384;51.214;9.202;2023-01-30T04:22:46;98478.88;;;0.90;84.63
30618;BME280;17384;51.214;9.202;2023-01-30T04:25:12;98467.03;;;0.93;84.70
30618;BME280;17384;51.214;9.202;2023-01-30T04:27:37;98465.38;;;0.92;84.81
30618;BME280;17384;51.214;9.202;2023-01-30T04:30:03;98446.84;;;0.90;85.13
30618;BME280;17384;51.214;9.202;2023-01-30T04:32:29;98465.38;;;0.92;85.22
30618;BME280;17384;51.214;9.202;2023-01-30T04:34:54;98463.19;;;0.87;85.67
30618;BME280;17384;51.214;9.202;2023-01-30T04:37:20;98463.84;;;0.89;86.04
30618;BME280;17384;51.214;9.202;2023-01-30T04:39:46;98448.81;;;0.88;86.50
30618;BME280;17384;51.214;9.202;2023-01-30T04:42:11;98443.13;;;0.83;86.94
30618;BME280;17384;51.214;9.202;2023-01-30T04:44:37;98443.69;;;0.95;87.42
30618;BME280;17384;51.214;9.202;2023-01-30T04:47:02;98445.53;;;1.02;87.30
30618;BME280;17384;51.214;9.202;2023-01-30T04:49:27;98448.56;;;1.08;87.34
30618;BME280;17384;51.214;9.202;2023-01-30T04:51:53;98446.88;;;1.15;87.22
30618;BME280;17384;51.214;9.202;2023-01-30T04:54:18;98417.34;;;1.24;87.02
30618;BME280;17384;51.214;9.202;2023-01-30T04:56:44;98417.19;;;1.26;86.80
30618;BME280;17384;51.214;9.202;2023-01-30T04:59:10;98425.22;;;1.34;86.90
30618;BME280;17384;51.214;9.202;2023-01-30T05:01:37;98426.72;;;1.37;86.49
30618;BME280;17384;51.214;9.202;2023-01-30T05:04:04;98427.53;;;1.37;86.36
30618;BME280;17384;51.214;9.202;2023-01-30T05:06:31;98415.84;;;1.46;86.12
30618;BME280;17384;51.214;9.202;2023-01-30T05:08:57;98422.03;;;1.47;85.91
30618;BME280;17384;51.214;9.202;2023-01-30T05:11:25;98417.19;;;1.50;86.00
30618;BME280;17384;51.214;9.202;2023-01-30T05:13:51;98420.53;;;1.52;85.98
30618;BME280;17384;51.214;9.202;2023-01-30T05:16:18;98408.00;;;1.53;86.06
30618;BME280;17384;51.214;9.202;2023-01-30T05:18:44;98416.84;;;1.53;85.91
30618;BME280;17384;51.214;9.202;2023-01-30T05:21:12;98411.50;;;1.53;86.21
30618;BME280;17384;51.214;9.202;2023-01-30T05:23:38;98393.78;;;1.52;86.32
30618;BME280;17384;51.214;9.202;2023-01-30T05:26:04;98402.81;;;1.51;86.53
30618;BME280;17384;51.214;9.202;2023-01-30T05:28:30;98390.63;;;1.57;86.43
30618;BME280;17384;51.214;9.202;2023-01-30T05:31:10;98397.63;;;1.58;86.29
30618;BME280;17384;51.214;9.202;2023-01-30T05:33:36;98408.00;;;1.61;86.52
30618;BME280;17384;51.214;9.202;2023-01-30T05:36:02;98410.50;;;1.62;86.17
30618;BME280;17384;51.214;9.202;2023-01-30T05:38:28;98397.78;;;1.64;86.02
30618;BME280;17384;51.214;9.202;2023-01-30T05:41:01;98384.72;;;1.69;86.04
30618;BME280;17384;51.214;9.202;2023-01-30T05:43:27;98373.88;;;1.71;85.56
30618;BME280;17384;51.214;9.202;2023-01-30T05:45:54;98378.38;;;1.70;86.08
30618;BME280;17384;51.214;9.202;2023-01-30T05:48:21;98376.03;;;1.67;86.22
30618;BME280;17384;51.214;9.202;2023-01-30T05:50:49;98384.06;;;1.67;86.45
30618;BME280;17384;51.214;9.202;2023-01-30T05:53:14;98376.88;;;1.68;86.18
30618;BME280;17384;51.214;9.202;2023-01-30T05:55:40;98371.38;;;1.69;86.07
30618;BME280;17384;51.214;9.202;2023-01-30T05:58:05;98375.03;;;1.68;86.09
30618;BME280;17384;51.214;9.202;2023-01-30T06:00:31;98388.41;;;1.68;86.00
30618;BME280;17384;51.214;9.202;2023-01-30T06:02:56;98384.72;;;1.69;85.96
30618;BME280;17384;51.214;9.202;2023-01-30T06:05:21;98374.03;;;1.69;85.97
30618;BME280;17384;51.214;9.202;2023-01-30T06:07:47;98390.75;;;1.72;85.80
30618;BME280;17384;51.214;9.202;2023-01-30T06:10:12;98380.22;;;1.70;85.98
30618;BME280;17384;51.214;9.202;2023-01-30T06:12:38;98382.41;;;1.75;85.74
30618;BME280;17384;51.214;9.202;2023-01-30T06:15:04;98393.25;;;1.65;86.19
30618;BME280;17384;51.214;9.202;2023-01-30T06:17:30;98388.25;;;1.70;86.22
30618;BME280;17384;51.214;9.202;2023-01-30T06:19:55;98388.75;;;1.65;86.22
30618;BME280;17384;51.214;9.202;2023-01-30T06:22:21;98390.78;;;1.63;86.45
30618;BME280;17384;51.214;9.202;2023-01-30T06:24:47;98383.09;;;1.60;86.70
30618;BME280;17384;51.214;9.202;2023-01-30T06:27:12;98387.09;;;1.56;86.78
30618;BME280;17384;51.214;9.202;2023-01-30T06:29:38;98377.09;;;1.58;86.53
30618;BME280;17384;51.214;9.202;2023-01-30T06:32:04;98384.09;;;1.59;86.66
30618;BME280;17384;51.214;9.202;2023-01-30T06:34:29;98380.75;;;1.57;86.53
30618;BME280;17384;51.214;9.202;2023-01-30T06:36:55;98382.09;;;1.53;86.89
30618;BME280;17384;51.214;9.202;2023-01-30T06:39:20;98386.44;;;1.54;86.90
30618;BME280;17384;51.214;9.202;2023-01-30T06:41:46;98396.81;;;1.57;86.85
30618;BME280;17384;51.214;9.202;2023-01-30T06:44:12;98393.28;;;1.57;87.06
30618;BME280;17384;51.214;9.202;2023-01-30T06:46:37;98394.78;;;1.59;86.77
30618;BME280;17384;51.214;9.202;2023-01-30T06:49:03;98368.56;;;1.55;86.93
30618;BME280;17384;51.214;9.202;2023-01-30T06:51:28;98372.41;;;1.52;86.82
30618;BME280;17384;51.214;9.202;2023-01-30T06:53:54;98393.13;;;1.58;86.96
30618;BME280;17384;51.214;9.202;2023-01-30T06:56:20;98392.63;;;1.55;87.19
30618;BME280;17384;51.214;9.202;2023-01-30T06:58:45;98390.28;;;1.52;87.37
30618;BME280;17384;51.214;9.202;2023-01-30T07:01:11;98414.34;;;1.52;87.13
30618;BME280;17384;51.214;9.202;2023-01-30T07:03:36;98404.47;;;1.52;87.38
30618;BME280;17384;51.214;9.202;2023-01-30T07:06:02;98399.97;;;1.53;87.23
30618;BME280;17384;51.214;9.202;2023-01-30T07:08:28;98407.31;;;1.51;87.17
30618;BME280;17384;51.214;9.202;2023-01-30T07:10:53;98403.66;;;1.52;87.18
30618;BME280;17384;51.214;9.202;2023-01-30T07:13:19;98390.13;;;1.53;87.29
30618;BME280;17384;51.214;9.202;2023-01-30T07:15:44;98377.75;;;1.52;87.23
30618;BME280;17384;51.214;9.202;2023-01-30T07:18:11;98398.13;;;1.53;87.49
30618;BME280;17384;51.214;9.202;2023-01-30T07:20:36;98406.16;;;1.53;87.36
30618;BME280;17384;51.214;9.202;2023-01-30T07:23:02;98412.84;;;1.57;87.42
30618;BME280;17384;51.214;9.202;2023-01-30T07:25:28;98395.78;;;1.58;87.15
30618;BME280;17384;51.214;9.202;2023-01-30T07:27:59;98386.78;;;1.59;87.06
30618;BME280;17384;51.214;9.202;2023-01-30T07:30:26;98389.44;;;1.59;87.18
30618;BME280;17384;51.214;9.202;2023-01-30T07:32:53;98398.47;;;1.58;87.51
30618;BME280;17384;51.214;9.202;2023-01-30T07:35:19;98396.81;;;1.57;87.28
30618;BME280;17384;51.214;9.202;2023-01-30T07:37:46;98402.16;;;1.57;87.44
30618;BME280;17384;51.214;9.202;2023-01-30T07:40:12;98397.81;;;1.56;87.41
30618;BME280;17384;51.214;9.202;2023-01-30T07:42:38;98380.09;;;1.55;87.46
30618;BME280;17384;51.214;9.202;2023-01-30T07:45:04;98387.28;;;1.55;87.52
30618;BME280;17384;51.214;9.202;2023-01-30T07:47:29;98390.94;;;1.54;87.54
30618;BME280;17384;51.214;9.202;2023-01-30T07:49:55;98389.78;;;1.56;87.71
30618;BME280;17384;51.214;9.202;2023-01-30T07:52:21;98385.44;;;1.55;87.54
30618;BME280;17384;51.214;9.202;2023-01-30T07:54:46;98399.97;;;1.61;88.04
30618;BME280;17384;51.214;9.202;2023-01-30T07:57:12;98383.56;;;1.72;88.00
30618;BME280;17384;51.214;9.202;2023-01-30T07:59:37;98382.72;;;1.80;87.70
30618;BME280;17384;51.214;9.202;2023-01-30T08:02:03;98385.50;;;2.02;87.42
30618;BME280;17384;51.214;9.202;2023-01-30T08:04:28;98363.06;;;2.12;87.17
30618;BME280;17384;51.214;9.202;2023-01-30T08:06:53;98379.16;;;2.03;87.49
30618;BME280;17384;51.214;9.202;2023-01-30T08:09:19;98379.75;;;2.22;86.99
30618;BME280;17384;51.214;9.202;2023-01-30T08:11:45;98387.38;;;2.41;86.54
30618;BME280;17384;51.214;9.202;2023-01-30T08:14:10;98379.00;;;2.44;86.45
30618;BME280;17384;51.214;9.202;2023-01-30T08:16:35;98366.41;;;2.53;86.17
30618;BME280;17384;51.214;9.202;2023-01-30T08:19:03;98367.34;;;2.68;84.97
30618;BME280;17384;51.214;9.202;2023-01-30T08:21:29;98370.94;;;2.75;84.92
30618;BME280;17384;51.214;9.202;2023-01-30T08:23:54;98369.91;;;2.84;84.20
30618;BME280;17384;51.214;9.202;2023-01-30T08:26:20;98366.53;;;2.90;83.76
30618;BME280;17384;51.214;9.202;2023-01-30T08:28:45;98368.59;;;3.03;83.53
30618;BME280;17384;51.214;9.202;2023-01-30T08:31:12;98370.09;;;3.05;83.29
30618;BME280;17384;51.214;9.202;2023-01-30T08:33:38;98386.47;;;3.11;83.11
30618;BME280;17384;51.214;9.202;2023-01-30T08:36:04;98389.09;;;3.19;82.86
30618;BME280;17384;51.214;9.202;2023-01-30T08:38:29;98380.25;;;3.33;82.82
30618;BME280;17384;51.214;9.202;2023-01-30T08:40:55;98382.00;;;3.63;82.16
30618;BME280;17384;51.214;9.202;2023-01-30T08:43:22;98374.25;;;3.68;81.53
30618;BME280;17384;51.214;9.202;2023-01-30T08:45:48;98381.66;;;3.66;81.10
30618;BME280;17384;51.214;9.202;2023-01-30T08:48:13;98386.06;;;3.59;81.59
30618;BME280;17384;51.214;9.202;2023-01-30T08:50:39;98371.28;;;3.63;81.59
30618;BME280;17384;51.214;9.202;2023-01-30T08:53:06;98367.16;;;3.76;80.54
30618;BME280;17384;51.214;9.202;2023-01-30T08:55:33;98357.91;;;3.78;80.39
30618;BME280;17384;51.214;9.202;2023-01-30T08:57:58;98357.34;;;3.97;79.97
30618;BME280;17384;51.214;9.202;2023-01-30T09:00:26;98365.59;;;3.96;80.32
30618;BME280;17384;51.214;9.202;2023-01-30T09:02:56;98372.88;;;4.61;77.86
30618;BME280;17384;51.214;9.202;2023-01-30T09:05:22;98390.47;;;4.63;77.51
30618;BME280;17384;51.214;9.202;2023-01-30T09:07:48;98403.25;;;4.47;78.18
30618;BME280;17384;51.214;9.202;2023-01-30T09:10:14;98402.34;;;4.25;78.78
30618;BME280;17384;51.214;9.202;2023-01-30T09:12:40;98394.19;;;4.03;78.81
30618;BME280;17384;51.214;9.202;2023-01-30T09:15:06;98391.13;;;3.92;78.90
30618;BME280;17384;51.214;9.202;2023-01-30T09:17:32;98391.50;;;3.89;79.54
30618;BME280;17384;51.214;9.202;2023-01-30T09:19:57;98390.97;;;4.08;79.25
30618;BME280;17384;51.214;9.202;2023-01-30T09:22:23;98397.16;;;4.53;78.17
30618;BME280;17384;51.214;9.202;2023-01-30T09:24:48;98400.41;;;4.33;77.87
30618;BME280;17384;51.214;9.202;2023-01-30T09:27:14;98395.69;;;4.06;78.89
30618;BME280;17384;51.214;9.202;2023-01-30T09:29:39;98398.88;;;3.87;79.67
30618;BME280;17384;51.214;9.202;2023-01-30T09:32:04;98403.41;;;3.86;79.32
30618;BME280;17384;51.214;9.202;2023-01-30T09:34:30;98403.34;;;3.80;79.95
30618;BME280;17384;51.214;9.202;2023-01-30T09:36:59;98411.09;;;3.74;80.35
30618;BME280;17384;51.214;9.202;2023-01-30T09:39:26;98428.63;;;3.62;80.88
30618;BME280;17384;51.214;9.202;2023-01-30T09:47:31;98471.38;;;2.32;83.33
30618;BME280;17384;51.214;9.202;2023-01-30T09:52:54;98457.19;;;2.23;84.27
30618;BME280;17384;51.214;9.202;2023-01-30T09:55:24;98440.91;;;2.41;82.89
30618;BME280;17384;51.214;9.202;2023-01-30T09:57:51;98427.41;;;2.26;82.78
30618;BME280;17384;51.214;9.202;2023-01-30T10:00:36;98429.91;;;2.28;82.60
30618;BME280;17384;51.214;9.202;2023-01-30T10:03:10;98414.19;;;2.33;82.59
30618;BME280;17384;51.214;9.202;2023-01-30T10:05:44;98431.91;;;2.34;82.60
30618;BME280;17384;51.214;9.202;2023-01-30T10:08:44;98434.56;;;2.42;82.30
30618;BME280;17384;51.214;9.202;2023-01-30T10:26:47;98434.66;;;3.42;79.76
30618;BME280;17384;51.214;9.202;2023-01-30T10:31:50;98428.31;;;4.83;75.31
30618;BME280;17384;51.214;9.202;2023-01-30T10:34:24;98434.56;;;5.62;72.93
30618;BME280;17384;51.214;9.202;2023-01-30T10:37:13;98436.63;;;6.09;71.11
30618;BME280;17384;51.214;9.202;2023-01-30T10:40:04;98435.34;;;6.68;69.65
30618;BME280;17384;51.214;9.202;2023-01-30T10:42:49;98439.66;;;7.03;67.03
30618;BME280;17384;51.214;9.202;2023-01-30T10:45:30;98448.59;;;7.17;66.71
30618;BME280;17384;51.214;9.202;2023-01-30T10:51:12;98453.66;;;7.33;65.48
30618;BME280;17384;51.214;9.202;2023-01-30T10:53:45;98450.38;;;6.90;66.72
30618;BME280;17384;51.214;9.202;2023-01-30T10:56:38;98433.84;;;5.96;68.61
30618;BME280;17384;51.214;9.202;2023-01-30T11:01:50;98435.31;;;4.99;72.97
30618;BME280;17384;51.214;9.202;2023-01-30T11:04:29;98441.97;;;5.18;72.85
30618;BME280;17384;51.214;9.202;2023-01-30T11:06:58;98444.03;;;5.58;72.64
30618;BME280;17384;51.214;9.202;2023-01-30T11:09:44;98449.03;;;5.40;71.69
30618;BME280;17384;51.214;9.202;2023-01-30T11:12:10;98447.09;;;5.34;72.09
30618;BME280;17384;51.214;9.202;2023-01-30T11:14:56;98447.00;;;5.06;71.57
30618;BME280;17384;51.214;9.202;2023-01-30T11:17:34;98444.13;;;4.93;72.10
30618;BME280;17384;51.214;9.202;2023-01-30T11:22:34;98444.53;;;4.75;71.66
30618;BME280;17384;51.214;9.202;2023-01-30T11:25:14;98449.41;;;4.65;70.76
30618;BME280;17384;51.214;9.202;2023-01-30T11:27:41;98435.97;;;4.50;72.14
30618;BME280;17384;51.214;9.202;2023-01-30T11:30:17;98447.81;;;4.56;71.96
30618;BME280;17384;51.214;9.202;2023-01-30T11:32:46;98429.91;;;4.78;71.96
30618;BME280;17384;51.214;9.202;2023-01-30T11:37:43;98425.69;;;5.26;70.17
30618;BME280;17384;51.214;9.202;2023-01-30T11:40:21;98414.19;;;5.53;67.85
30618;BME280;17384;51.214;9.202;2023-01-30T11:43:01;98424.41;;;5.22;68.45
30618;BME280;17384;51.214;9.202;2023-01-30T11:45:27;98409.72;;;5.18;68.46
30618;BME280;17384;51.214;9.202;2023-01-30T11:47:59;98399.16;;;5.01;68.36
30618;BME280;17384;51.214;9.202;2023-01-30T11:50:31;98400.63;;;4.83;68.15
30618;BME280;17384;51.214;9.202;2023-01-30T11:53:01;98418.69;;;4.74;68.32
30618;BME280;17384;51.214;9.202;2023-01-30T11:55:28;98396.81;;;4.77;66.44
30618;BME280;17384;51.214;9.202;2023-01-30T11:57:57;98412.03;;;4.70;66.52
30618;BME280;17384;51.214;9.202;2023-01-30T12:00:38;98425.00;;;4.81;66.89
30618;BME280;17384;51.214;9.202;2023-01-30T12:03:10;98415.72;;;4.69;67.10
30618;BME280;17384;51.214;9.202;2023-01-30T12:05:37;98403.34;;;4.53;68.67
30618;BME280;17384;51.214;9.202;2023-01-30T12:10:49;98411.03;;;4.41;69.04
30618;BME280;17384;51.214;9.202;2023-01-30T12:13:19;98409.78;;;4.37;70.63
30618;BME280;17384;51.214;9.202;2023-01-30T12:15:49;98421.13;;;4.39;71.06
30618;BME280;17384;51.214;9.202;2023-01-30T12:18:36;98421.88;;;4.48;71.07
30618;BME280;17384;51.214;9.202;2023-01-30T12:26:15;98406.56;;;4.78;67.94
30618;BME280;17384;51.214;9.202;2023-01-30T12:32:01;98406.19;;;4.81;68.55
30618;BME280;17384;51.214;9.202;2023-01-30T12:34:27;98404.06;;;4.76;68.12
30618;BME280;17384;51.214;9.202;2023-01-30T12:44:57;98413.34;;;4.59;70.66
30618;BME280;17384;51.214;9.202;2023-01-30T12:53:20;98434.56;;;4.54;70.95
30618;BME280;17384;51.214;9.202;2023-01-30T12:58:28;98445.31;;;4.10;72.94
30618;BME280;17384;51.214;9.202;2023-01-30T13:01:19;98464.09;;;4.10;74.37
30618;BME280;17384;51.214;9.202;2023-01-30T13:04:11;98455.22;;;4.39;73.22
30618;BME280;17384;51.214;9.202;2023-01-30T13:12:57;98451.34;;;5.64;67.55
30618;BME280;17384;51.214;9.202;2023-01-30T13:23:00;98430.53;;;6.63;60.76
30618;BME280;17384;51.214;9.202;2023-01-30T13:25:43;98441.47;;;5.93;61.76
30618;BME280;17384;51.214;9.202;2023-01-30T13:28:16;98430.84;;;5.63;62.17
30618;BME280;17384;51.214;9.202;2023-01-30T13:30:43;98443.31;;;5.28;62.87
30618;BME280;17384;51.214;9.202;2023-01-30T13:33:13;98436.88;;;5.08;62.98
30618;BME280;17384;51.214;9.202;2023-01-30T13:35:46;98421.41;;;5.53;61.69
30618;BME280;17384;51.214;9.202;2023-01-30T13:38:20;98421.69;;;6.07;59.68
30618;BME280;17384;51.214;9.202;2023-01-30T13:40:48;98425.91;;;6.16;59.69
30618;BME280;17384;51.214;9.202;2023-01-30T13:43:27;98433.63;;;6.60;58.79
30618;BME280;17384;51.214;9.202;2023-01-30T13:45:57;98439.22;;;6.24;59.41
30618;BME280;17384;51.214;9.202;2023-01-30T13:48:40;98442.84;;;6.10;59.66
30618;BME280;17384;51.214;9.202;2023-01-30T13:54:45;98445.38;;;6.46;59.47
30618;BME280;17384;51.214;9.202;2023-01-30T13:57:26;98444.63;;;6.24;59.38
30618;BME280;17384;51.214;9.202;2023-01-30T14:08:20;98450.44;;;5.00;65.21
30618;BME280;17384;51.214;9.202;2023-01-30T14:10:47;98451.03;;;4.81;66.19
30618;BME280;17384;51.214;9.202;2023-01-30T14:13:14;98468.81;;;4.67;66.47
30618;BME280;17384;51.214;9.202;2023-01-30T14:15:58;98461.41;;;4.84;67.22
30618;BME280;17384;51.214;9.202;2023-01-30T14:18:36;98454.44;;;5.25;66.07
30618;BME280;17384;51.214;9.202;2023-01-30T14:21:15;98471.25;;;5.49;65.26
30618;BME280;17384;51.214;9.202;2023-01-30T14:23:59;98450.19;;;5.95;63.25
30618;BME280;17384;51.214;9.202;2023-01-30T14:34:43;98486.31;;;6.07;60.92
30618;BME280;17384;51.214;9.202;2023-01-30T14:37:44;98508.19;;;6.47;60.42
30618;BME280;17384;51.214;9.202;2023-01-30T14:45:51;98512.06;;;5.52;63.88
30618;BME280;17384;51.214;9.202;2023-01-30T14:48:31;98506.66;;;5.31;65.28
30618;BME280;17384;51.214;9.202;2023-01-30T14:56:14;98522.03;;;4.86;67.37
30618;BME280;17384;51.214;9.202;2023-01-30T14:58:50;98508.13;;;5.33;66.11
30618;BME280;17384;51.214;9.202;2023-01-30T15:01:16;98541.63;;;5.67;64.38
30618;BME280;17384;51.214;9.202;2023-01-30T15:03:46;98554.09;;;5.53;64.71
30618;BME280;17384;51.214;9.202;2023-01-30T15:06:12;98578.94;;;4.90;68.31
30618;BME280;17384;51.214;9.202;2023-01-30T15:08:40;98625.34;;;4.08;74.01
30618;BME280;17384;51.214;9.202;2023-01-30T15:11:21;98680.34;;;2.71;79.71
30618;BME280;17384;51.214;9.202;2023-01-30T15:13:57;98660.91;;;2.28;82.17
30618;BME280;17384;51.214;9.202;2023-01-30T15:21:53;98624.28;;;2.13;80.24
30618;BME280;17384;51.214;9.202;2023-01-30T15:27:23;98644.34;;;2.09;79.31
30618;BME280;17384;51.214;9.202;2023-01-30T15:30:17;98654.22;;;2.08;78.86
30618;BME280;17384;51.214;9.202;2023-01-30T15:32:44;98658.69;;;1.83;79.71
30618;BME280;17384;51.214;9.202;2023-01-30T15:37:46;98678.38;;;1.74;80.06
30618;BME280;17384;51.214;9.202;2023-01-30T15:45:50;98693.09;;;1.78;81.66
30618;BME280;17384;51.214;9.202;2023-01-30T15:51:03;98711.38;;;1.99;82.73
30618;BME280;17384;51.214;9.202;2023-01-30T15:53:31;98707.38;;;2.03;82.18
30618;BME280;17384;51.214;9.202;2023-01-30T15:56:05;98720.41;;;1.98;82.45
30618;BME280;17384;51.214;9.202;2023-01-30T15:58:36;98732.47;;;2.02;82.56